Time;durP1;ratioP1;P1;durP2;ratioP2;P2;SDS_P1;SDS_P2;PMS_P1;PMS_P2;Temp;Humidity;BMP_temperature;BMP_pressure;BME280_temperature;BME280_humidity;BME280_pressure;Samples;Min_cycle;Max_cycle;Signal;HPM_P1;HPM_P2
2023/10/07 00:02:15;;;;;;;10.23;4.83;;;9.10;99.90;;;10.09;100.00;98937.31;5014031;28;20895;-77
2023/10/07 00:04:46;;;;;;;9.60;4.20;;;9.20;99.90;;;9.99;100.00;98930.59;5016843;28;20469;-78
2023/10/07 00:07:16;;;;;;;9.10;4.67;;;9.10;99.90;;;10.02;100.00;98925.06;5019088;28;20478;-77
2023/10/07 00:09:50;;;;;;;10.53;4.50;;;9.10;99.90;;;10.07;100.00;98938.44;5022116;28;20462;-77
2023/10/07 00:12:20;;;;;;;13.93;4.57;;;9.10;99.90;;;10.02;100.00;98925.88;5022045;28;20505;-77
2023/10/07 00:14:50;;;;;;;9.80;4.30;;;9.10;99.90;;;10.05;100.00;98937.78;5022209;28;20473;-77
2023/10/07 00:17:22;;;;;;;8.57;4.63;;;9.00;99.90;;;10.03;100.00;98926.69;5019779;28;20553;-77
2023/10/07 00:19:52;;;;;;;9.20;5.00;;;9.00;99.90;;;10.06;100.00;98926.38;5020247;28;20528;-77
2023/10/07 00:22:24;;;;;;;8.57;4.03;;;9.00;99.90;;;10.05;100.00;98936.00;5020773;28;20610;-78
2023/10/07 00:24:58;;;;;;;10.83;4.03;;;9.00;99.90;;;9.99;100.00;98938.44;5021936;28;20501;-77
2023/10/07 00:27:31;;;;;;;7.83;4.20;;;9.00;99.90;;;9.97;100.00;98943.00;5020439;28;20545;-77
2023/10/07 00:30:01;;;;;;;9.20;4.37;;;9.00;99.90;;;9.87;100.00;98930.09;5020585;28;20993;-78
2023/10/07 00:32:33;;;;;;;9.83;5.10;;;9.00;99.90;;;9.87;100.00;98926.66;5020847;28;20500;-78
2023/10/07 00:35:06;;;;;;;15.50;4.50;;;9.00;99.90;;;9.91;100.00;98922.75;5021857;28;20529;-77
2023/10/07 00:37:37;;;;;;;10.07;4.50;;;9.00;99.90;;;9.85;100.00;98919.00;5020838;28;21027;-77
2023/10/07 00:40:14;;;;;;;8.67;4.37;;;8.90;99.90;;;9.84;100.00;98908.69;5019062;28;20471;-78
2023/10/07 00:42:45;;;;;;;7.73;4.47;;;8.80;99.90;;;9.76;100.00;98904.28;5020425;28;20505;-78
2023/10/07 00:45:16;;;;;;;8.10;4.67;;;8.80;99.90;;;9.78;100.00;98909.34;5017175;28;20455;-77
2023/10/07 00:47:49;;;;;;;7.97;4.20;;;8.70;99.90;;;9.71;100.00;98897.91;5018933;28;20465;-77
2023/10/07 00:50:22;;;;;;;11.67;4.87;;;8.60;99.90;;;9.71;100.00;98905.75;5019951;28;20462;-76
2023/10/07 00:52:57;;;;;;;21.37;4.43;;;8.60;99.90;;;9.67;100.00;98899.19;5018803;28;20520;-77
2023/10/07 00:55:29;;;;;;;7.27;4.17;;;8.50;99.90;;;9.63;100.00;98910.94;5019600;28;20702;-76
2023/10/07 00:58:08;;;;;;;12.10;4.33;;;8.50;99.90;;;9.50;100.00;98914.84;5018366;28;20839;-77
2023/10/07 01:00:46;;;;;;;9.37;4.47;;;8.40;99.90;;;9.49;100.00;98910.56;5018528;28;20462;-77
2023/10/07 01:03:23;;;;;;;9.70;4.23;;;8.40;99.90;;;9.50;100.00;98909.63;5017259;28;20593;-78
2023/10/07 01:06:09;;;;;;;9.67;4.70;;;8.50;99.90;;;9.52;100.00;98918.09;5019153;28;20545;-78
2023/10/07 01:08:44;;;;;;;9.17;4.30;;;8.60;99.90;;;9.54;100.00;98910.91;5019264;28;20457;-77
2023/10/07 01:11:23;;;;;;;9.67;4.70;;;8.60;99.90;;;9.56;100.00;98916.81;5017114;28;20963;-77
2023/10/07 01:13:52;;;;;;;17.63;4.73;;;8.60;99.90;;;9.53;100.00;98909.28;5019550;28;20473;-78
2023/10/07 01:16:31;;;;;;;6.67;4.10;;;8.50;99.90;;;9.48;100.00;98916.75;5022158;28;20546;-77
2023/10/07 01:19:18;;;;;;;8.73;4.47;;;8.50;99.90;;;9.43;100.00;98911.22;5022038;28;20494;-77
2023/10/07 01:21:54;;;;;;;8.77;4.30;;;8.50;99.90;;;9.44;100.00;98918.06;5018082;28;20481;-77
2023/10/07 01:24:34;;;;;;;8.10;3.90;;;8.60;99.90;;;9.46;100.00;98913.50;5018554;28;20959;-77
2023/10/07 01:27:07;;;;;;;7.77;4.23;;;8.50;99.90;;;9.49;100.00;98913.19;5022743;28;20466;-77
2023/10/07 01:29:42;;;;;;;5.63;3.60;;;8.50;99.90;;;9.48;100.00;98905.50;5020692;28;20473;-77
2023/10/07 01:32:15;;;;;;;7.97;3.83;;;8.40;99.90;;;9.46;100.00;98908.28;5019103;28;20699;-77
2023/10/07 01:34:51;;;;;;;6.80;3.60;;;8.40;99.90;;;9.42;100.00;98908.75;5019080;28;20461;-78
2023/10/07 01:37:22;;;;;;;12.00;4.50;;;8.40;99.90;;;9.39;100.00;98912.50;5019776;28;20462;-77
2023/10/07 01:39:53;;;;;;;8.13;4.40;;;8.40;99.90;;;9.34;100.00;98909.53;5019787;28;20466;-77
2023/10/07 01:42:26;;;;;;;11.43;4.67;;;8.40;99.90;;;9.30;100.00;98903.00;5017702;28;20493;-77
2023/10/07 01:45:09;;;;;;;6.70;3.77;;;8.40;99.90;;;9.29;100.00;98901.38;5019176;28;20979;-78
2023/10/07 01:47:39;;;;;;;7.47;3.60;;;8.40;99.90;;;9.33;100.00;98907.91;5018607;28;20482;-78
2023/10/07 01:50:12;;;;;;;8.70;4.23;;;8.40;99.90;;;9.36;100.00;98910.22;5017821;28;20471;-78
2023/10/07 01:52:46;;;;;;;9.60;4.37;;;8.40;99.90;;;9.33;100.00;98909.72;5018612;28;20465;-78
2023/10/07 01:55:19;;;;;;;8.37;4.37;;;8.40;99.90;;;9.29;100.00;98913.59;5016859;28;20465;-77
2023/10/07 01:57:50;;;;;;;8.10;3.67;;;8.30;99.90;;;9.27;100.00;98916.34;5018458;28;20470;-77
2023/10/07 02:00:36;;;;;;;6.90;4.43;;;8.30;99.90;;;9.27;100.00;98907.72;5015660;28;20490;-77
2023/10/07 02:03:09;;;;;;;10.10;3.63;;;8.20;99.90;;;9.28;100.00;98914.56;5017527;28;20485;-77
2023/10/07 02:05:40;;;;;;;19.80;5.10;;;8.30;99.90;;;9.29;100.00;98918.81;5016917;28;20984;-77
2023/10/07 02:08:14;;;;;;;10.30;4.30;;;8.30;99.90;;;9.26;100.00;98917.34;5016745;28;20486;-77
2023/10/07 02:10:45;;;;;;;7.50;3.80;;;8.30;99.90;;;9.23;100.00;98906.41;5017687;28;20544;-78
2023/10/07 02:13:19;;;;;;;13.30;4.00;;;8.20;99.90;;;9.16;100.00;98908.84;5015607;28;20581;-79
2023/10/07 02:15:52;;;;;;;7.17;3.60;;;8.10;99.90;;;9.19;100.00;98905.09;5017147;28;20843;-76
2023/10/07 02:18:26;;;;;;;7.90;3.47;;;8.20;99.90;;;9.17;100.00;98897.41;5018395;28;20987;-77
2023/10/07 02:21:06;;;;;;;8.13;4.97;;;8.30;99.90;;;9.16;100.00;98890.56;5018332;28;20503;-78
2023/10/07 02:23:40;;;;;;;5.53;3.70;;;8.10;99.90;;;9.13;100.00;98903.91;5018035;28;20994;-77
2023/10/07 02:26:18;;;;;;;12.67;4.00;;;8.10;99.90;;;9.08;100.00;98888.75;5018441;28;21067;-77
2023/10/07 02:28:51;;;;;;;9.80;4.00;;;8.20;99.90;;;9.07;100.00;98889.69;5018600;28;20972;-77
2023/10/07 02:31:22;;;;;;;10.93;3.63;;;8.10;99.90;;;9.04;100.00;98892.63;5019143;28;20502;-78
2023/10/07 02:33:52;;;;;;;8.07;4.43;;;8.20;99.90;;;9.05;100.00;98890.84;5017075;28;20498;-77
2023/10/07 02:36:31;;;;;;;7.93;4.10;;;8.20;99.90;;;9.06;100.00;98885.44;5019448;28;20578;-78
2023/10/07 02:39:03;;;;;;;8.23;3.43;;;8.10;99.90;;;9.06;100.00;98879.41;5015505;28;20899;-77
2023/10/07 02:41:34;;;;;;;10.27;4.07;;;8.10;99.90;;;9.04;100.00;98883.97;5017987;28;20466;-76
2023/10/07 02:44:10;;;;;;;9.00;3.80;;;8.10;99.90;;;9.02;100.00;98878.91;5017104;28;20505;-78
2023/10/07 02:46:52;;;;;;;7.10;3.93;;;8.10;99.90;;;9.03;100.00;98884.94;5017693;28;20562;-77
2023/10/07 02:49:22;;;;;;;8.43;4.40;;;8.10;99.90;;;9.01;100.00;98882.50;5017867;28;20458;-77
2023/10/07 02:51:55;;;;;;;8.30;4.00;;;8.10;99.90;;;9.01;100.00;98882.50;5015807;28;20478;-77
2023/10/07 02:54:32;;;;;;;7.20;3.97;;;8.10;99.90;;;9.03;100.00;98874.50;5015714;28;20462;-77
2023/10/07 02:57:08;;;;;;;8.20;4.00;;;8.10;99.90;;;8.99;100.00;98879.22;5016013;28;20454;-77
2023/10/07 02:59:42;;;;;;;10.60;3.73;;;8.10;99.90;;;9.00;100.00;98890.47;5015121;28;20961;-77
2023/10/07 03:02:25;;;;;;;6.60;3.43;;;8.10;99.90;;;8.98;100.00;98892.44;5014078;28;20867;-77
2023/10/07 03:07:41;;;;;;;6.33;3.27;;;8.00;99.90;;;8.92;100.00;98891.25;5015708;28;20588;-77
2023/10/07 03:10:18;;;;;;;8.73;3.80;;;8.10;99.90;;;8.94;100.00;98893.72;5018061;28;20455;-77
2023/10/07 03:12:56;;;;;;;9.87;4.00;;;8.10;99.90;;;8.97;100.00;98896.00;5018908;28;20501;-77
2023/10/07 03:15:39;;;;;;;8.40;4.00;;;8.10;99.90;;;8.95;100.00;98895.38;5019159;28;20469;-80
2023/10/07 03:18:21;;;;;;;5.80;3.90;;;8.00;99.90;;;8.94;100.00;98891.94;5018515;28;20473;-78
2023/10/07 03:21:06;;;;;;;6.63;3.33;;;8.00;99.90;;;8.95;100.00;98892.75;5018661;28;20458;-79
2023/10/07 03:23:45;;;;;;;9.23;3.80;;;8.00;99.90;;;8.93;100.00;98897.28;5017826;28;20863;-77
2023/10/07 03:26:23;;;;;;;8.20;3.60;;;7.90;99.90;;;8.86;100.00;98898.88;5018223;28;20833;-77
2023/10/07 03:28:55;;;;;;;38.93;16.43;;;8.00;99.90;;;8.90;100.00;98895.00;5014970;28;20524;-78
2023/10/07 03:31:34;;;;;;;7.67;3.50;;;8.00;99.90;;;8.88;100.00;98900.38;5016924;28;20458;-77
2023/10/07 03:34:08;;;;;;;5.27;2.70;;;8.00;99.90;;;8.85;100.00;98902.47;5016906;28;20561;-78
2023/10/07 03:36:45;;;;;;;6.47;3.30;;;7.90;99.90;;;8.84;100.00;98904.28;5015582;28;20552;-78
2023/10/07 03:39:42;;;;;;;4.90;2.93;;;7.80;99.90;;;8.87;100.00;98890.91;5018121;28;21030;-77
2023/10/07 03:42:14;;;;;;;6.73;3.73;;;7.90;99.90;;;8.87;100.00;98883.09;5019987;28;20477;-78
2023/10/07 03:44:46;;;;;;;8.50;3.47;;;7.90;99.90;;;8.88;100.00;98903.00;5018943;28;20506;-78
2023/10/07 03:47:17;;;;;;;7.00;3.37;;;8.00;99.90;;;8.84;100.00;98909.50;5020665;28;20458;-78
2023/10/07 03:49:52;;;;;;;9.13;3.97;;;8.00;99.90;;;8.79;100.00;98903.91;5020016;28;20561;-78
2023/10/07 03:52:27;;;;;;;8.00;3.70;;;7.90;99.90;;;8.82;100.00;98881.91;5019781;28;20643;-79
2023/10/07 03:54:59;;;;;;;7.20;3.30;;;8.00;99.90;;;8.83;100.00;98889.59;5020296;28;20473;-78
2023/10/07 03:57:30;;;;;;;5.20;2.77;;;8.00;99.90;;;8.89;100.00;98890.75;5023148;28;20458;-78
2023/10/07 04:00:10;;;;;;;5.57;3.17;;;8.00;99.90;;;8.85;100.00;98887.63;5020684;28;20528;-78
2023/10/07 04:02:45;;;;;;;12.93;3.63;;;8.00;99.90;;;8.84;100.00;98879.97;5022259;28;20536;-77
2023/10/07 04:05:15;;;;;;;7.93;3.47;;;7.90;99.90;;;8.87;100.00;98884.88;5023062;28;20520;-78
2023/10/07 04:07:45;;;;;;;6.70;2.97;;;8.00;99.90;;;8.91;100.00;98886.22;5021152;28;21019;-77
2023/10/07 04:10:21;;;;;;;6.30;3.50;;;8.00;99.90;;;8.91;100.00;98875.78;5020880;28;21088;-77
2023/10/07 04:12:56;;;;;;;7.23;3.40;;;8.00;99.90;;;8.96;100.00;98889.16;5019325;28;20453;-77
2023/10/07 04:15:30;;;;;;;13.13;3.37;;;8.00;99.90;;;8.96;100.00;98870.91;5021325;28;20521;-77
2023/10/07 04:18:00;;;;;;;6.40;3.10;;;7.90;99.90;;;8.91;100.00;98879.22;5021693;28;20630;-77
2023/10/07 04:20:50;;;;;;;6.27;3.50;;;7.90;99.90;;;8.94;100.00;98870.25;5021058;28;20551;-78
2023/10/07 04:23:24;;;;;;;7.13;3.10;;;8.00;99.90;;;8.97;100.00;98888.19;5020807;28;20470;-78
2023/10/07 04:26:04;;;;;;;6.27;3.20;;;8.00;99.90;;;8.92;100.00;98878.22;5020522;28;20469;-78
2023/10/07 04:28:34;;;;;;;9.23;2.90;;;8.00;99.90;;;8.94;100.00;98881.50;5018231;28;20461;-79
2023/10/07 04:31:10;;;;;;;15.83;7.53;;;8.00;99.90;;;8.94;100.00;98871.06;5019688;28;20458;-78
2023/10/07 04:33:48;;;;;;;60.20;22.73;;;8.10;99.90;;;9.00;100.00;98883.47;5020726;28;20576;-79
2023/10/07 04:36:31;;;;;;;57.13;25.93;;;8.20;99.90;;;9.04;100.00;98881.38;5018956;28;20472;-78
2023/10/07 04:39:17;;;;;;;6.17;3.43;;;8.20;99.90;;;8.98;100.00;98882.00;5018745;28;20544;-78
2023/10/07 04:41:56;;;;;;;8.87;2.90;;;8.20;99.90;;;8.99;100.00;98878.41;5019185;28;20461;-80
2023/10/07 04:47:34;;;;;;;6.33;3.10;;;8.20;99.90;;;8.97;100.00;98877.75;5022206;28;20485;-81
2023/10/07 04:50:13;;;;;;;10.23;3.40;;;8.00;99.90;;;8.98;100.00;98885.44;5021326;28;20984;-80
2023/10/07 04:52:50;;;;;;;13.87;3.40;;;8.10;99.90;;;9.03;100.00;98877.13;5022706;28;20461;-81
2023/10/07 04:55:19;;;;;;;4.77;2.80;;;8.10;99.90;;;9.04;100.00;98883.97;5021393;28;20461;-80
2023/10/07 04:57:57;;;;;;;5.80;3.40;;;8.20;99.90;;;9.09;100.00;98884.34;5021581;28;20552;-80
2023/10/07 05:00:37;;;;;;;9.07;3.60;;;8.20;99.90;;;9.07;100.00;98891.50;5022339;28;20472;-80
2023/10/07 05:03:30;;;;;;;10.50;3.60;;;8.20;99.90;;;9.04;100.00;98902.25;5022136;28;20494;-79
2023/10/07 05:06:00;;;;;;;7.13;2.80;;;8.20;99.90;;;9.06;100.00;98892.47;5019513;28;20972;-80
2023/10/07 05:08:30;;;;;;;6.57;3.13;;;8.30;99.90;;;9.13;100.00;98890.06;5019105;28;20470;-80
2023/10/07 05:11:04;;;;;;;6.70;3.03;;;8.40;99.90;;;9.20;100.00;98902.31;5021869;28;20461;-80
2023/10/07 05:13:44;;;;;;;5.27;3.27;;;8.40;99.90;;;9.25;100.00;98892.22;5020063;28;20547;-80
2023/10/07 05:16:12;;;;;;;7.97;3.53;;;8.40;99.90;;;9.31;100.00;98894.19;5019623;28;20497;-80
2023/10/07 05:18:44;;;;;;;5.13;2.90;;;8.50;99.90;;;9.35;100.00;98892.91;5020386;28;20467;-80
2023/10/07 05:21:16;;;;;;;10.40;3.93;;;8.50;99.90;;;9.35;100.00;98887.69;5019463;28;20471;-79
2023/10/07 05:23:46;;;;;;;10.67;3.13;;;8.60;99.90;;;9.39;100.00;98888.19;5018805;28;21010;-80
2023/10/07 05:26:17;;;;;;;5.67;3.57;;;8.60;99.90;;;9.34;100.00;98888.66;5017840;28;20467;-80
2023/10/07 05:28:47;;;;;;;9.77;2.80;;;8.60;99.90;;;9.38;100.00;98889.97;5020172;28;20495;-79
2023/10/07 05:31:17;;;;;;;9.17;3.83;;;8.60;99.90;;;9.41;100.00;98889.66;5020106;28;20552;-80
2023/10/07 05:33:50;;;;;;;7.37;3.50;;;8.60;99.90;;;9.46;100.00;98884.78;5018581;28;20463;-80
2023/10/07 05:36:23;;;;;;;11.30;3.23;;;8.60;99.90;;;9.52;100.00;98880.72;5021220;28;20834;-80
2023/10/07 05:38:53;;;;;;;10.33;2.97;;;8.70;99.90;;;9.57;100.00;98887.13;5021326;28;20465;-80
2023/10/07 05:41:25;;;;;;;6.80;3.53;;;8.80;99.90;;;9.60;100.00;98878.97;5021281;28;20497;-80
2023/10/07 05:43:55;;;;;;;6.67;3.43;;;8.80;99.90;;;9.63;100.00;98887.44;5018979;28;20482;-80
2023/10/07 05:46:27;;;;;;;7.70;4.40;;;8.90;99.90;;;9.70;100.00;98891.03;5021720;28;20499;-80
2023/10/07 05:48:59;;;;;;;8.33;4.60;;;8.90;99.90;;;9.72;100.00;98883.88;5023047;28;20486;-80
2023/10/07 05:51:28;;;;;;;7.43;4.13;;;8.90;99.90;;;9.77;100.00;98889.41;5020526;28;20984;-80
2023/10/07 05:54:00;;;;;;;9.13;3.80;;;8.90;99.90;;;9.80;100.00;98889.91;5018697;28;20961;-79
2023/10/07 05:56:29;;;;;;;7.10;3.33;;;8.90;99.90;;;9.80;100.00;98874.25;5021773;28;20545;-80
2023/10/07 05:59:01;;;;;;;5.90;2.90;;;9.00;99.90;;;9.83;100.00;98881.75;5020906;28;21052;-80
2023/10/07 06:01:33;;;;;;;11.07;3.27;;;9.00;99.90;;;9.85;100.00;98873.78;5019532;28;20471;-80
2023/10/07 06:04:07;;;;;;;7.10;3.50;;;9.10;99.90;;;9.92;100.00;98882.59;5019313;28;20459;-80
2023/10/07 06:06:38;;;;;;;5.80;4.10;;;9.10;99.90;;;9.97;100.00;98881.13;5021246;28;20890;-80
2023/10/07 06:09:10;;;;;;;5.73;3.43;;;9.20;99.90;;;10.02;100.00;98878.03;5021022;28;20539;-80
2023/10/07 06:11:39;;;;;;;15.53;4.43;;;9.20;99.90;;;10.07;100.00;98886.19;5018838;28;20542;-80
2023/10/07 06:14:11;;;;;;;6.80;4.20;;;9.20;99.90;;;10.09;100.00;98884.22;5018247;28;20483;-81
2023/10/07 06:16:42;;;;;;;6.60;3.00;;;9.30;99.90;;;10.14;100.00;98876.72;5017451;28;20515;-80
2023/10/07 06:19:13;;;;;;;6.60;4.10;;;9.40;99.90;;;10.18;100.00;98872.81;5017888;28;20469;-80
2023/10/07 06:21:50;;;;;;;18.77;4.50;;;9.40;99.90;;;10.22;100.00;98883.75;5018756;28;20469;-80
2023/10/07 06:24:22;;;;;;;6.87;3.87;;;9.40;99.90;;;10.25;100.00;98884.25;5017719;28;20470;-80
2023/10/07 06:26:53;;;;;;;8.00;3.83;;;9.40;99.90;;;10.31;100.00;98890.66;5018844;28;20818;-80
2023/10/07 06:29:22;;;;;;;8.90;4.07;;;9.50;99.90;;;10.35;100.00;98887.50;5017777;28;20498;-79
2023/10/07 06:31:56;;;;;;;6.10;3.13;;;9.50;99.90;;;10.39;100.00;98891.44;5016805;28;20473;-79
2023/10/07 06:34:32;;;;;;;14.40;5.13;;;9.60;99.90;;;10.44;100.00;98898.78;5016986;28;20966;-80
2023/10/07 06:37:02;;;;;;;9.83;4.80;;;9.60;99.90;;;10.48;100.00;98895.66;5017733;28;20490;-80
2023/10/07 06:39:33;;;;;;;7.87;3.20;;;9.70;99.90;;;10.53;100.00;98898.63;5017115;28;20481;-80
2023/10/07 06:42:06;;;;;;;14.70;4.70;;;9.70;99.90;;;10.56;100.00;98898.28;5017304;28;20470;-80
2023/10/07 06:44:36;;;;;;;9.73;5.00;;;9.70;99.90;;;10.62;100.00;98906.47;5018275;28;20462;-79
2023/10/07 06:47:11;;;;;;;23.90;5.23;;;9.80;99.90;;;10.64;100.00;98901.88;5015799;28;20553;-80
2023/10/07 06:49:43;;;;;;;10.13;4.03;;;9.80;99.90;;;10.68;100.00;98909.22;5019358;28;20556;-80
2023/10/07 06:52:12;;;;;;;8.70;4.13;;;9.90;99.90;;;10.72;100.00;98901.84;5020319;28;22104;-80
2023/10/07 06:54:43;;;;;;;8.37;4.30;;;9.90;99.90;;;10.76;100.00;98895.31;5019583;28;20464;-80
2023/10/07 06:57:34;;;;;;;8.77;4.20;;;9.90;99.90;;;10.81;100.00;98916.53;5020116;28;20867;-80
2023/10/07 07:00:09;;;;;;;9.50;3.87;;;10.00;99.90;;;10.86;100.00;98924.72;5019572;28;20508;-80
2023/10/07 07:02:40;;;;;;;9.83;4.40;;;10.10;99.90;;;10.90;100.00;98911.13;5020214;28;20460;-80
2023/10/07 07:05:16;;;;;;;6.83;3.90;;;10.10;99.90;;;10.95;100.00;98927.16;5019359;28;20522;-80
2023/10/07 07:07:46;;;;;;;13.20;4.67;;;10.10;99.90;;;11.01;100.00;98928.25;5018165;28;20581;-80
2023/10/07 07:10:27;;;;;;;5.87;3.80;;;10.20;99.90;;;11.02;100.00;98924.69;5020981;28;20469;-80
2023/10/07 07:13:04;;;;;;;6.60;3.40;;;10.30;99.90;;;11.09;100.00;98930.88;5019364;28;20462;-80
2023/10/07 07:15:41;;;;;;;11.10;4.30;;;10.30;99.90;;;11.14;100.00;98925.97;5028656;28;20473;-80
2023/10/07 07:18:26;;;;;;;8.50;4.23;;;10.40;99.90;;;11.20;100.00;98920.03;5024366;28;20462;-80
2023/10/07 07:21:14;;;;;;;6.40;4.10;;;10.40;99.90;;;11.23;100.00;98913.66;5026407;28;20467;-80
2023/10/07 07:23:49;;;;;;;14.23;4.20;;;10.50;99.90;;;11.29;100.00;98919.00;5026187;28;21051;-80
2023/10/07 07:26:21;;;;;;;9.80;4.60;;;10.50;99.90;;;11.32;100.00;98913.44;5025002;28;20521;-80
2023/10/07 07:28:56;;;;;;;10.63;5.60;;;10.70;99.90;;;11.39;100.00;98917.00;5024783;28;20494;-80
2023/10/07 07:31:33;;;;;;;8.37;4.50;;;10.70;99.90;;;11.44;100.00;98925.19;5023781;28;20549;-80
2023/10/07 07:34:19;;;;;;;16.13;5.00;;;10.80;99.90;;;11.50;100.00;98927.09;5025170;28;21151;-80
2023/10/07 07:36:56;;;;;;;8.77;4.83;;;10.80;99.90;;;11.58;100.00;98942.78;5024061;28;20474;-80
2023/10/07 07:39:30;;;;;;;10.47;4.50;;;10.90;99.90;;;11.65;100.00;98936.88;5022880;28;20466;-80
2023/10/07 07:42:15;;;;;;;11.83;5.00;;;10.90;99.90;;;11.70;100.00;98939.81;5024274;28;20466;-80
2023/10/07 07:44:57;;;;;;;9.30;4.40;;;11.00;99.90;;;11.74;100.00;98938.47;5022994;28;20462;-80
2023/10/07 07:47:30;;;;;;;7.23;4.00;;;11.10;99.90;;;11.79;100.00;98946.66;5026075;28;20493;-80
2023/10/07 07:50:07;;;;;;;7.80;4.10;;;11.10;99.90;;;11.85;100.00;98949.41;5026303;28;20461;-80
2023/10/07 07:52:41;;;;;;;9.40;4.67;;;11.10;99.90;;;11.90;100.00;98946.25;5025469;28;20465;-79
2023/10/07 07:55:14;;;;;;;10.13;4.47;;;11.20;99.90;;;11.94;100.00;98950.97;5025139;28;21308;-80
2023/10/07 07:57:45;;;;;;;10.40;4.30;;;11.20;99.90;;;12.00;100.00;98952.91;5026486;28;20466;-80
2023/10/07 08:00:20;;;;;;;10.83;4.50;;;11.30;99.90;;;12.04;100.00;98953.38;5025020;28;20462;-79
2023/10/07 08:02:50;;;;;;;17.03;4.87;;;11.40;99.90;;;12.08;100.00;98959.88;5026711;28;20752;-80
2023/10/07 08:05:20;;;;;;;8.37;4.40;;;11.40;99.90;;;12.15;100.00;98963.44;5026249;28;20470;-80
2023/10/07 08:07:52;;;;;;;14.27;4.73;;;11.50;99.90;;;12.20;100.00;98966.38;5025560;28;20597;-80
2023/10/07 08:10:23;;;;;;;7.70;3.90;;;11.60;99.90;;;12.27;100.00;98971.72;5024768;28;20462;-80
2023/10/07 08:12:53;;;;;;;8.67;4.10;;;11.60;99.90;;;12.32;100.00;98975.44;5025413;28;20462;-80
2023/10/07 08:15:24;;;;;;;9.07;4.00;;;11.70;99.90;;;12.38;100.00;98977.41;5025485;28;20880;-80
2023/10/07 08:17:56;;;;;;;6.37;3.57;;;11.70;99.90;;;12.43;100.00;98984.72;5025203;28;20461;-80
2023/10/07 08:20:33;;;;;;;10.27;4.10;;;11.80;99.90;;;12.50;100.00;98994.34;5025993;28;20461;-80
2023/10/07 08:23:08;;;;;;;13.77;4.80;;;11.90;99.90;;;12.58;100.00;98989.03;5023906;28;20595;-80
2023/10/07 08:25:45;;;;;;;9.00;4.10;;;12.00;99.90;;;12.65;100.00;98996.19;5023268;28;20494;-80
2023/10/07 08:28:19;;;;;;;8.30;4.47;;;12.10;99.90;;;12.71;100.00;98992.88;5023487;28;20488;-80
2023/10/07 08:30:48;;;;;;;18.70;4.03;;;12.20;99.90;;;12.78;100.00;98986.72;5022253;28;20459;-80
2023/10/07 08:33:22;;;;;;;9.07;4.97;;;12.20;99.90;;;12.84;100.00;98985.22;5022468;28;20463;-80
2023/10/07 08:35:52;;;;;;;8.40;3.50;;;12.30;99.90;;;12.93;100.00;98989.41;5023052;28;20482;-80
2023/10/07 08:38:29;;;;;;;10.70;4.30;;;12.30;99.90;;;12.96;100.00;98971.47;5023831;28;20958;-79
2023/10/07 08:41:05;;;;;;;9.20;4.80;;;12.40;99.90;;;13.02;100.00;98969.94;5021597;28;20453;-80
2023/10/07 08:43:43;;;;;;;14.30;4.33;;;12.50;99.90;;;13.07;100.00;98980.72;5020862;28;20462;-79
2023/10/07 08:46:16;;;;;;;9.13;4.20;;;12.60;99.90;;;13.14;100.00;98979.03;5022688;28;20493;-80
2023/10/07 08:48:56;;;;;;;9.10;4.53;;;12.70;99.90;;;13.20;100.00;98978.31;5022345;28;20463;-79
2023/10/07 08:51:33;;;;;;;12.23;5.00;;;12.70;99.90;;;13.29;100.00;98986.94;5022725;28;20458;-80
2023/10/07 08:54:11;;;;;;;12.80;5.10;;;12.80;99.90;;;13.31;100.00;98984.94;5021976;28;20457;-80
2023/10/07 08:56:44;;;;;;;10.60;6.27;;;12.90;99.90;;;13.38;100.00;98977.97;5021822;28;20461;-80
2023/10/07 08:59:14;;;;;;;7.20;4.57;;;12.90;99.90;;;13.43;100.00;98981.66;5022683;28;21030;-80
2023/10/07 09:01:46;;;;;;;15.93;4.70;;;13.00;99.90;;;13.48;100.00;98976.69;5020098;28;21030;-80
2023/10/07 09:04:18;;;;;;;14.33;4.70;;;13.00;99.90;;;13.52;100.00;98980.59;5019031;28;20553;-80
2023/10/07 09:06:50;;;;;;;9.27;4.23;;;13.10;99.90;;;13.57;100.00;98980.84;5019300;28;20494;-80
2023/10/07 09:09:38;;;;;;;9.67;4.37;;;13.20;99.90;;;13.65;100.00;98979.09;5019964;28;20877;-80
2023/10/07 09:12:30;;;;;;;8.27;4.30;;;13.30;99.90;;;13.70;100.00;98980.22;5017503;28;20482;-79
2023/10/07 09:15:07;;;;;;;11.60;4.67;;;13.30;99.90;;;13.80;100.00;98977.28;5018482;28;20957;-80
2023/10/07 09:17:42;;;;;;;9.17;4.43;;;13.30;99.90;;;13.87;100.00;98971.09;5019577;28;20541;-80
2023/10/07 09:20:17;;;;;;;13.30;4.73;;;13.40;99.90;;;13.95;100.00;98973.59;5020115;28;20482;-80
2023/10/07 09:22:53;;;;;;;9.83;3.90;;;13.40;99.90;;;14.01;100.00;98957.09;5018856;28;20454;-79
2023/10/07 09:25:32;;;;;;;6.83;4.07;;;13.50;99.90;;;14.09;100.00;98969.34;5019138;28;20457;-79
2023/10/07 09:28:07;;;;;;;10.47;4.40;;;13.50;99.90;;;14.14;100.00;98969.56;5022180;28;20489;-79
2023/10/07 09:30:44;;;;;;;8.10;3.70;;;13.60;99.90;;;14.20;100.00;98966.19;5022862;28;20477;-79
2023/10/07 09:33:17;;;;;;;11.20;4.53;;;13.70;99.90;;;14.23;100.00;98971.06;5020878;28;20468;-79
2023/10/07 09:36:22;;;;;;;10.83;3.57;;;13.80;99.90;;;14.33;100.00;98976.88;5022119;28;20981;-80
2023/10/07 09:38:41;;;;;;;14.33;4.20;;;13.90;99.90;;;14.39;100.00;98964.78;5019455;28;20462;-80
2023/10/07 09:41:23;;;;;;;10.37;3.67;;;14.00;99.90;;;14.44;100.00;98965.84;5021515;28;20465;-79
2023/10/07 09:43:56;;;;;;;9.20;4.33;;;14.00;99.90;;;14.51;100.00;98969.34;5021611;28;20466;-79
2023/10/07 09:46:27;;;;;;;7.10;3.60;;;14.10;99.90;;;14.55;100.00;98970.59;5019954;28;20494;-80
2023/10/07 09:49:06;;;;;;;8.00;4.47;;;14.10;99.90;;;14.60;100.00;98962.16;5018942;28;20465;-80
2023/10/07 09:51:41;;;;;;;10.17;4.50;;;14.20;99.90;;;14.67;100.00;98957.75;5020647;28;20472;-79
2023/10/07 09:54:37;;;;;;;9.30;4.30;;;14.30;99.90;;;14.74;100.00;98952.53;5018609;28;20455;-80
2023/10/07 09:57:30;;;;;;;6.10;4.13;;;14.30;99.90;;;14.84;100.00;98953.00;5020165;28;20840;-79
2023/10/07 10:00:40;;;;;;;7.97;3.97;;;14.30;99.90;;;14.90;100.00;98945.16;5020348;28;20470;-79
2023/10/07 10:04:28;;;;;;;9.63;3.70;;;14.40;99.90;;;15.00;100.00;98947.44;5018096;28;20467;-79
2023/10/07 10:07:22;;;;;;;11.50;3.80;;;14.40;99.90;;;15.04;100.00;98949.50;5017919;28;20604;-79
2023/10/07 10:10:05;;;;;;;6.47;3.43;;;14.50;99.90;;;15.11;100.00;98953.00;5018571;28;20480;-80
2023/10/07 10:13:06;;;;;;;12.53;4.13;;;14.60;99.90;;;15.16;100.00;98952.44;5018776;28;20489;-80
2023/10/07 10:15:53;;;;;;;8.57;4.00;;;14.70;99.90;;;15.24;100.00;98954.09;5017942;28;20474;-80
2023/10/07 10:18:35;;;;;;;11.30;4.20;;;14.80;99.90;;;15.32;100.00;98952.09;5018095;28;20516;-79
2023/10/07 10:21:09;;;;;;;8.90;3.93;;;14.80;99.90;;;15.37;100.00;98948.88;5018121;28;20462;-79
2023/10/07 10:23:42;;;;;;;8.70;3.27;;;14.90;99.90;;;15.41;100.00;98953.56;5019196;28;20466;-79
2023/10/07 10:26:20;;;;;;;8.60;3.90;;;14.90;99.90;;;15.46;100.00;98961.69;5019961;28;20478;-79
2023/10/07 10:29:07;;;;;;;6.77;3.20;;;15.00;99.90;;;15.51;100.00;98961.97;5019583;28;20455;-79
2023/10/07 10:31:40;;;;;;;7.37;3.60;;;15.10;99.90;;;15.56;100.00;98967.47;5016706;28;20512;-79
2023/10/07 10:34:14;;;;;;;6.63;2.90;;;15.00;99.90;;;15.62;100.00;98973.75;5020109;28;20451;-79
2023/10/07 10:36:49;;;;;;;9.13;3.13;;;15.10;99.90;;;15.62;100.00;98978.25;5018320;28;20562;-80
2023/10/07 10:39:24;;;;;;;8.60;3.87;;;15.00;99.90;;;15.69;100.00;98973.81;5018747;28;20461;-79
2023/10/07 10:42:13;;;;;;;6.00;3.57;;;15.10;99.90;;;15.71;100.00;98972.59;5017262;28;20481;-79
2023/10/07 10:44:48;;;;;;;6.73;3.87;;;15.10;99.90;;;15.79;100.00;98969.78;5018329;28;20548;-80
2023/10/07 10:47:21;;;;;;;11.63;3.67;;;15.20;99.90;;;15.83;100.00;98973.66;5018561;28;20561;-79
2023/10/07 10:49:54;;;;;;;7.93;3.60;;;15.20;99.90;;;15.86;100.00;98983.00;5017655;28;20545;-79
2023/10/07 10:52:26;;;;;;;7.93;3.37;;;15.20;99.90;;;15.90;100.00;98973.66;5017420;28;20553;-79
2023/10/07 10:55:03;;;;;;;16.63;3.53;;;15.20;99.90;;;15.91;100.00;98973.47;5019358;28;20465;-79
2023/10/07 10:57:32;;;;;;;9.30;3.43;;;15.30;99.90;;;15.99;100.00;98970.69;5018197;28;20474;-79
2023/10/07 11:00:11;;;;;;;8.67;3.87;;;15.30;99.90;;;16.06;100.00;98965.41;5017589;28;20463;-79